sensor_id;sensor_type;location;lat;lon;timestamp;temperature;humidity
20915;DHT22;10617;52.032;5.298;2022-12-18T00:03:35;-2.50;99.90
20915;DHT22;10617;52.032;5.298;2022-12-18T00:07:37;-2.50;99.90
20915;DHT22;10617;52.032;5.298;2022-12-18T00:11:39;-2.40;99.90
20915;DHT22;10617;52.032;5.298;2022-12-18T00:15:40;-2.40;99.90
20915;DHT22;10617;52.032;5.298;2022-12-18T00:19:42;-2.40;99.90
20915;DHT22;10617;52.032;5.298;2022-12-18T00:23:44;-2.50;99.90
20915;DHT22;10617;52.032;5.298;2022-12-18T00:27:46;-2.50;99.90
20915;DHT22;10617;52.032;5.298;2022-12-18T00:42:01;-2.40;99.90
20915;DHT22;10617;52.032;5.298;2022-12-18T00:46:21;-2.50;99.90
20915;DHT22;10617;52.032;5.298;2022-12-18T00:50:24;-2.50;99.90
20915;DHT22;10617;52.032;5.298;2022-12-18T00:54:26;-2.50;99.90
20915;DHT22;10617;52.032;5.298;2022-12-18T00:58:27;-2.50;99.90
20915;DHT22;10617;52.032;5.298;2022-12-18T01:02:29;-2.50;99.90
20915;DHT22;10617;52.032;5.298;2022-12-18T01:06:31;-2.50;99.90
20915;DHT22;10617;52.032;5.298;2022-12-18T01:10:32;-2.50;99.90
20915;DHT22;10617;52.032;5.298;2022-12-18T01:14:34;-2.50;99.90
20915;DHT22;10617;52.032;5.298;2022-12-18T01:18:36;-2.50;99.90
20915;DHT22;10617;52.032;5.298;2022-12-18T01:27:40;-2.60;99.90
20915;DHT22;10617;52.032;5.298;2022-12-18T01:31:42;-2.60;99.90
20915;DHT22;10617;52.032;5.298;2022-12-18T01:46:02;-2.80;99.90
20915;DHT22;10617;52.032;5.298;2022-12-18T01:50:15;-2.80;99.90
20915;DHT22;10617;52.032;5.298;2022-12-18T01:54:17;-2.90;99.90
20915;DHT22;10617;52.032;5.298;2022-12-18T01:58:19;-3.00;99.90
20915;DHT22;10617;52.032;5.298;2022-12-18T02:02:21;-3.00;99.90
20915;DHT22;10617;52.032;5.298;2022-12-18T02:06:28;-3.10;99.90
20915;DHT22;10617;52.032;5.298;2022-12-18T02:18:51;-3.10;99.90
20915;DHT22;10617;52.032;5.298;2022-12-18T02:27:05;-3.20;99.90
20915;DHT22;10617;52.032;5.298;2022-12-18T02:31:08;-3.30;99.90
20915;DHT22;10617;52.032;5.298;2022-12-18T02:35:13;-3.30;99.90
20915;DHT22;10617;52.032;5.298;2022-12-18T02:39:16;-3.30;99.90
20915;DHT22;10617;52.032;5.298;2022-12-18T03:01:49;-3.50;99.90
20915;DHT22;10617;52.032;5.298;2022-12-18T03:05:55;-3.50;99.90
20915;DHT22;10617;52.032;5.298;2022-12-18T03:09:59;-3.60;99.90
20915;DHT22;10617;52.032;5.298;2022-12-18T03:14:01;-3.60;99.90
20915;DHT22;10617;52.032;5.298;2022-12-18T03:18:07;-3.60;99.90
20915;DHT22;10617;52.032;5.298;2022-12-18T03:22:10;-3.70;99.90
20915;DHT22;10617;52.032;5.298;2022-12-18T03:26:12;-3.70;99.90
20915;DHT22;10617;52.032;5.298;2022-12-18T03:30:16;-3.70;99.90
20915;DHT22;10617;52.032;5.298;2022-12-18T03:34:29;-3.80;99.90
20915;DHT22;10617;52.032;5.298;2022-12-18T03:38:31;-3.80;99.90
20915;DHT22;10617;52.032;5.298;2022-12-18T03:42:43;-3.80;99.90
20915;DHT22;10617;52.032;5.298;2022-12-18T03:47:06;-3.80;99.90
20915;DHT22;10617;52.032;5.298;2022-12-18T03:51:17;-3.90;99.90
20915;DHT22;10617;52.032;5.298;2022-12-18T03:55:19;-3.90;99.90
20915;DHT22;10617;52.032;5.298;2022-12-18T04:04:25;-4.00;99.90
20915;DHT22;10617;52.032;5.298;2022-12-18T04:08:29;-4.00;99.90
20915;DHT22;10617;52.032;5.298;2022-12-18T04:12:31;-4.00;99.90
20915;DHT22;10617;52.032;5.298;2022-12-18T04:16:32;-4.10;99.90
20915;DHT22;10617;52.032;5.298;2022-12-18T04:20:34;-4.10;99.90
20915;DHT22;10617;52.032;5.298;2022-12-18T04:24:36;-4.10;99.90
20915;DHT22;10617;52.032;5.298;2022-12-18T04:28:37;-4.10;99.90
20915;DHT22;10617;52.032;5.298;2022-12-18T04:32:39;-4.20;99.90
20915;DHT22;10617;52.032;5.298;2022-12-18T04:36:41;-4.20;99.90
20915;DHT22;10617;52.032;5.298;2022-12-18T04:40:42;-4.20;99.90
20915;DHT22;10617;52.032;5.298;2022-12-18T04:44:44;-4.20;99.90
20915;DHT22;10617;52.032;5.298;2022-12-18T04:48:46;-4.30;99.90
20915;DHT22;10617;52.032;5.298;2022-12-18T04:52:48;-4.30;99.90
20915;DHT22;10617;52.032;5.298;2022-12-18T04:56:49;-4.30;99.90
20915;DHT22;10617;52.032;5.298;2022-12-18T05:00:51;-4.30;99.90
20915;DHT22;10617;52.032;5.298;2022-12-18T05:04:53;-4.30;99.90
20915;DHT22;10617;52.032;5.298;2022-12-18T05:08:54;-4.30;99.90
20915;DHT22;10617;52.032;5.298;2022-12-18T05:12:56;-4.30;99.90
20915;DHT22;10617;52.032;5.298;2022-12-18T05:17:01;-4.30;99.90
20915;DHT22;10617;52.032;5.298;2022-12-18T05:21:03;-4.30;99.90
20915;DHT22;10617;52.032;5.298;2022-12-18T05:25:05;-4.30;99.90
20915;DHT22;10617;52.032;5.298;2022-12-18T05:29:07;-4.40;99.90
20915;DHT22;10617;52.032;5.298;2022-12-18T05:33:08;-4.40;99.90
20915;DHT22;10617;52.032;5.298;2022-12-18T05:37:10;-4.40;99.90
20915;DHT22;10617;52.032;5.298;2022-12-18T05:41:11;-4.40;99.90
20915;DHT22;10617;52.032;5.298;2022-12-18T05:45:13;-4.40;99.90
20915;DHT22;10617;52.032;5.298;2022-12-18T05:49:14;-4.50;99.90
20915;DHT22;10617;52.032;5.298;2022-12-18T05:53:17;-4.50;99.90
20915;DHT22;10617;52.032;5.298;2022-12-18T05:57:19;-4.50;99.90
20915;DHT22;10617;52.032;5.298;2022-12-18T06:01:22;-4.50;99.90
20915;DHT22;10617;52.032;5.298;2022-12-18T06:05:24;-4.50;99.90
20915;DHT22;10617;52.032;5.298;2022-12-18T06:09:25;-4.50;99.90
20915;DHT22;10617;52.032;5.298;2022-12-18T06:13:27;-4.50;99.90
20915;DHT22;10617;52.032;5.298;2022-12-18T06:17:29;-4.50;99.90
20915;DHT22;10617;52.032;5.298;2022-12-18T06:21:31;-4.60;99.90
20915;DHT22;10617;52.032;5.298;2022-12-18T06:25:33;-4.50;99.90
20915;DHT22;10617;52.032;5.298;2022-12-18T06:29:34;-4.50;99.90
20915;DHT22;10617;52.032;5.298;2022-12-18T06:33:36;-4.50;99.90
20915;DHT22;10617;52.032;5.298;2022-12-18T06:37:38;-4.60;99.90
20915;DHT22;10617;52.032;5.298;2022-12-18T06:41:40;-4.50;99.90
20915;DHT22;10617;52.032;5.298;2022-12-18T06:45:42;-4.50;99.90
20915;DHT22;10617;52.032;5.298;2022-12-18T06:49:43;-4.50;99.90
20915;DHT22;10617;52.032;5.298;2022-12-18T06:53:45;-4.50;99.90
20915;DHT22;10617;52.032;5.298;2022-12-18T06:57:47;-4.50;99.90
20915;DHT22;10617;52.032;5.298;2022-12-18T07:01:48;-4.50;99.90
20915;DHT22;10617;52.032;5.298;2022-12-18T07:05:50;-4.50;99.90
20915;DHT22;10617;52.032;5.298;2022-12-18T07:09:52;-4.40;99.90
20915;DHT22;10617;52.032;5.298;2022-12-18T07:13:53;-4.50;99.90
20915;DHT22;10617;52.032;5.298;2022-12-18T07:17:55;-4.40;99.90
20915;DHT22;10617;52.032;5.298;2022-12-18T07:21:57;-4.40;99.90
20915;DHT22;10617;52.032;5.298;2022-12-18T07:26:09;-4.40;99.90
20915;DHT22;10617;52.032;5.298;2022-12-18T07:30:11;-4.40;99.90
20915;DHT22;10617;52.032;5.298;2022-12-18T07:34:13;-4.40;99.90
20915;DHT22;10617;52.032;5.298;2022-12-18T07:38:15;-4.40;99.90
20915;DHT22;10617;52.032;5.298;2022-12-18T07:42:16;-4.40;99.90
20915;DHT22;10617;52.032;5.298;2022-12-18T07:46:33;-4.40;99.90
20915;DHT22;10617;52.032;5.298;2022-12-18T07:50:35;-4.40;99.90
20915;DHT22;10617;52.032;5.298;2022-12-18T07:54:36;-4.30;99.90
20915;DHT22;10617;52.032;5.298;2022-12-18T07:58:38;-4.30;99.90
20915;DHT22;10617;52.032;5.298;2022-12-18T08:02:40;-4.30;99.90
20915;DHT22;10617;52.032;5.298;2022-12-18T08:06:41;-4.20;99.90
20915;DHT22;10617;52.032;5.298;2022-12-18T08:10:48;-4.20;99.90
20915;DHT22;10617;52.032;5.298;2022-12-18T08:14:49;-4.10;99.90
20915;DHT22;10617;52.032;5.298;2022-12-18T08:18:51;-4.00;99.90
20915;DHT22;10617;52.032;5.298;2022-12-18T08:22:53;-4.00;99.90
20915;DHT22;10617;52.032;5.298;2022-12-18T08:26:55;-3.90;99.90
20915;DHT22;10617;52.032;5.298;2022-12-18T08:31:18;-3.90;99.90
20915;DHT22;10617;52.032;5.298;2022-12-18T08:35:20;-3.80;99.90
20915;DHT22;10617;52.032;5.298;2022-12-18T08:39:22;-3.80;99.90
20915;DHT22;10617;52.032;5.298;2022-12-18T08:43:23;-3.80;99.90
20915;DHT22;10617;52.032;5.298;2022-12-18T08:47:44;-3.70;99.90
20915;DHT22;10617;52.032;5.298;2022-12-18T08:51:45;-3.60;99.90
20915;DHT22;10617;52.032;5.298;2022-12-18T08:55:47;-3.50;99.90
20915;DHT22;10617;52.032;5.298;2022-12-18T08:59:50;-3.40;99.90
20915;DHT22;10617;52.032;5.298;2022-12-18T09:03:52;-3.30;99.90
20915;DHT22;10617;52.032;5.298;2022-12-18T09:07:54;-3.20;99.90
20915;DHT22;10617;52.032;5.298;2022-12-18T09:11:55;-3.10;99.90
20915;DHT22;10617;52.032;5.298;2022-12-18T09:15:58;-3.00;99.90
20915;DHT22;10617;52.032;5.298;2022-12-18T09:19:59;-3.00;99.90
20915;DHT22;10617;52.032;5.298;2022-12-18T09:24:01;-2.90;99.90
20915;DHT22;10617;52.032;5.298;2022-12-18T09:28:03;-2.90;99.90
20915;DHT22;10617;52.032;5.298;2022-12-18T09:32:05;-2.80;99.90
20915;DHT22;10617;52.032;5.298;2022-12-18T09:36:08;-2.70;99.90
20915;DHT22;10617;52.032;5.298;2022-12-18T09:40:20;-2.60;99.90
20915;DHT22;10617;52.032;5.298;2022-12-18T09:44:29;-2.60;99.90
20915;DHT22;10617;52.032;5.298;2022-12-18T09:48:34;-2.50;99.90
20915;DHT22;10617;52.032;5.298;2022-12-18T09:52:37;-2.40;99.90
20915;DHT22;10617;52.032;5.298;2022-12-18T09:56:41;-2.40;99.90
20915;DHT22;10617;52.032;5.298;2022-12-18T10:00:43;-2.30;99.90
20915;DHT22;10617;52.032;5.298;2022-12-18T10:04:46;-2.20;99.90
20915;DHT22;10617;52.032;5.298;2022-12-18T10:17:22;-2.00;99.90
20915;DHT22;10617;52.032;5.298;2022-12-18T10:31:32;-1.80;99.90
20915;DHT22;10617;52.032;5.298;2022-12-18T10:35:33;-1.70;99.90
20915;DHT22;10617;52.032;5.298;2022-12-18T10:39:36;-1.70;99.90
20915;DHT22;10617;52.032;5.298;2022-12-18T10:43:38;-1.60;99.90
20915;DHT22;10617;52.032;5.298;2022-12-18T10:47:44;-1.50;99.90
20915;DHT22;10617;52.032;5.298;2022-12-18T10:51:46;-1.50;99.90
20915;DHT22;10617;52.032;5.298;2022-12-18T10:55:48;-1.40;99.90
20915;DHT22;10617;52.032;5.298;2022-12-18T10:59:51;-1.40;99.90
20915;DHT22;10617;52.032;5.298;2022-12-18T11:08:00;-1.30;99.90
20915;DHT22;10617;52.032;5.298;2022-12-18T11:12:23;-1.30;99.90
20915;DHT22;10617;52.032;5.298;2022-12-18T11:16:24;-1.20;99.90
20915;DHT22;10617;52.032;5.298;2022-12-18T11:20:34;-1.10;99.90
20915;DHT22;10617;52.032;5.298;2022-12-18T11:24:36;-1.10;99.90
20915;DHT22;10617;52.032;5.298;2022-12-18T11:38:44;-0.90;99.90
20915;DHT22;10617;52.032;5.298;2022-12-18T11:42:58;-0.80;99.90
20915;DHT22;10617;52.032;5.298;2022-12-18T11:47:13;-0.80;99.90
20915;DHT22;10617;52.032;5.298;2022-12-18T11:51:22;-0.70;99.90
20915;DHT22;10617;52.032;5.298;2022-12-18T11:55:37;-0.60;99.90
20915;DHT22;10617;52.032;5.298;2022-12-18T11:59:51;-0.60;99.90
20915;DHT22;10617;52.032;5.298;2022-12-18T12:04:04;-0.60;99.90
20915;DHT22;10617;52.032;5.298;2022-12-18T12:12:27;-0.50;99.90
20915;DHT22;10617;52.032;5.298;2022-12-18T12:17:03;-0.50;99.90
20915;DHT22;10617;52.032;5.298;2022-12-18T12:21:17;-0.40;99.90
20915;DHT22;10617;52.032;5.298;2022-12-18T12:37:39;-0.30;99.90
20915;DHT22;10617;52.032;5.298;2022-12-18T12:41:44;-0.20;99.90
20915;DHT22;10617;52.032;5.298;2022-12-18T12:46:07;-0.20;99.90
20915;DHT22;10617;52.032;5.298;2022-12-18T12:50:14;-0.20;99.90
20915;DHT22;10617;52.032;5.298;2022-12-18T12:54:21;-0.10;99.90
20915;DHT22;10617;52.032;5.298;2022-12-18T12:58:37;-0.10;99.90
20915;DHT22;10617;52.032;5.298;2022-12-18T13:02:46;-0.10;99.90
20915;DHT22;10617;52.032;5.298;2022-12-18T13:06:57;-0.10;99.90
20915;DHT22;10617;52.032;5.298;2022-12-18T13:11:00;0.00;99.90
20915;DHT22;10617;52.032;5.298;2022-12-18T13:15:31;0.00;99.90
20915;DHT22;10617;52.032;5.298;2022-12-18T13:19:33;0.00;99.90
20915;DHT22;10617;52.032;5.298;2022-12-18T13:23:36;0.00;99.90
20915;DHT22;10617;52.032;5.298;2022-12-18T13:31:57;0.00;99.90
20915;DHT22;10617;52.032;5.298;2022-12-18T13:40:45;0.00;99.90
20915;DHT22;10617;52.032;5.298;2022-12-18T13:44:42;0.10;99.90
20915;DHT22;10617;52.032;5.298;2022-12-18T13:52:52;0.10;99.90
20915;DHT22;10617;52.032;5.298;2022-12-18T13:56:53;0.10;99.90
20915;DHT22;10617;52.032;5.298;2022-12-18T14:00:55;0.10;99.90
20915;DHT22;10617;52.032;5.298;2022-12-18T14:04:58;0.10;99.90
20915;DHT22;10617;52.032;5.298;2022-12-18T14:08:59;0.10;99.90
20915;DHT22;10617;52.032;5.298;2022-12-18T14:13:05;0.10;99.90
20915;DHT22;10617;52.032;5.298;2022-12-18T14:17:10;0.10;99.90
20915;DHT22;10617;52.032;5.298;2022-12-18T14:21:31;0.10;99.90
20915;DHT22;10617;52.032;5.298;2022-12-18T14:25:35;0.20;99.90
20915;DHT22;10617;52.032;5.298;2022-12-18T14:29:36;0.20;99.90
20915;DHT22;10617;52.032;5.298;2022-12-18T14:33:44;0.20;99.90
20915;DHT22;10617;52.032;5.298;2022-12-18T14:37:45;0.20;99.90
20915;DHT22;10617;52.032;5.298;2022-12-18T14:41:48;0.20;99.90
20915;DHT22;10617;52.032;5.298;2022-12-18T14:45:50;0.20;99.90
20915;DHT22;10617;52.032;5.298;2022-12-18T14:49:52;0.20;99.90
20915;DHT22;10617;52.032;5.298;2022-12-18T14:54:01;0.20;99.90
20915;DHT22;10617;52.032;5.298;2022-12-18T14:58:03;0.20;99.90
20915;DHT22;10617;52.032;5.298;2022-12-18T15:02:15;0.20;99.90
20915;DHT22;10617;52.032;5.298;2022-12-18T15:06:33;0.20;99.90
20915;DHT22;10617;52.032;5.298;2022-12-18T15:10:45;0.20;99.90
20915;DHT22;10617;52.032;5.298;2022-12-18T15:14:47;0.20;99.90
20915;DHT22;10617;52.032;5.298;2022-12-18T15:18:49;0.30;99.90
20915;DHT22;10617;52.032;5.298;2022-12-18T15:22:51;0.20;99.90
20915;DHT22;10617;52.032;5.298;2022-12-18T15:26:52;0.20;99.90
20915;DHT22;10617;52.032;5.298;2022-12-18T15:31:04;0.20;99.90
20915;DHT22;10617;52.032;5.298;2022-12-18T15:39:17;0.20;99.90
20915;DHT22;10617;52.032;5.298;2022-12-18T15:43:22;0.20;99.90
20915;DHT22;10617;52.032;5.298;2022-12-18T15:47:36;0.30;99.90
20915;DHT22;10617;52.032;5.298;2022-12-18T15:51:38;0.20;99.90
20915;DHT22;10617;52.032;5.298;2022-12-18T15:55:40;0.20;99.90
20915;DHT22;10617;52.032;5.298;2022-12-18T16:00:11;0.20;99.90
20915;DHT22;10617;52.032;5.298;2022-12-18T16:04:13;0.20;99.90
20915;DHT22;10617;52.032;5.298;2022-12-18T16:08:15;0.20;99.90
20915;DHT22;10617;52.032;5.298;2022-12-18T16:12:18;0.20;99.90
20915;DHT22;10617;52.032;5.298;2022-12-18T16:16:20;0.20;99.90
20915;DHT22;10617;52.032;5.298;2022-12-18T16:20:22;0.20;99.90
20915;DHT22;10617;52.032;5.298;2022-12-18T16:24:25;0.20;99.90
20915;DHT22;10617;52.032;5.298;2022-12-18T16:28:27;0.20;99.90
20915;DHT22;10617;52.032;5.298;2022-12-18T16:37:32;0.20;99.90
20915;DHT22;10617;52.032;5.298;2022-12-18T16:41:34;0.20;99.90
20915;DHT22;10617;52.032;5.298;2022-12-18T16:45:36;0.30;99.90
20915;DHT22;10617;52.032;5.298;2022-12-18T16:49:38;0.30;99.90
20915;DHT22;10617;52.032;5.298;2022-12-18T16:53:40;0.30;99.90
20915;DHT22;10617;52.032;5.298;2022-12-18T16:57:42;0.30;99.90
20915;DHT22;10617;52.032;5.298;2022-12-18T17:01:43;0.30;99.90
20915;DHT22;10617;52.032;5.298;2022-12-18T17:05:45;0.30;99.90
20915;DHT22;10617;52.032;5.298;2022-12-18T17:09:53;0.30;99.90
20915;DHT22;10617;52.032;5.298;2022-12-18T17:13:55;0.30;99.90
20915;DHT22;10617;52.032;5.298;2022-12-18T17:17:57;0.30;99.90
20915;DHT22;10617;52.032;5.298;2022-12-18T17:21:58;0.30;99.90
20915;DHT22;10617;52.032;5.298;2022-12-18T17:26:00;0.30;99.90
20915;DHT22;10617;52.032;5.298;2022-12-18T17:30:02;0.40;99.90
20915;DHT22;10617;52.032;5.298;2022-12-18T17:34:04;0.40;99.90
20915;DHT22;10617;52.032;5.298;2022-12-18T17:38:06;0.40;99.90
20915;DHT22;10617;52.032;5.298;2022-12-18T17:42:07;0.40;99.90
20915;DHT22;10617;52.032;5.298;2022-12-18T17:46:12;0.40;99.90
20915;DHT22;10617;52.032;5.298;2022-12-18T17:50:14;0.40;99.90
20915;DHT22;10617;52.032;5.298;2022-12-18T17:54:16;0.40;99.90
20915;DHT22;10617;52.032;5.298;2022-12-18T17:58:18;0.40;99.90
20915;DHT22;10617;52.032;5.298;2022-12-18T18:02:19;0.40;99.90
20915;DHT22;10617;52.032;5.298;2022-12-18T18:06:21;0.50;99.90
20915;DHT22;10617;52.032;5.298;2022-12-18T18:10:24;0.50;99.90
20915;DHT22;10617;52.032;5.298;2022-12-18T18:14:25;0.50;99.90
20915;DHT22;10617;52.032;5.298;2022-12-18T18:18:28;0.50;99.90
20915;DHT22;10617;52.032;5.298;2022-12-18T18:22:29;0.50;99.90
20915;DHT22;10617;52.032;5.298;2022-12-18T18:26:32;0.60;99.90
20915;DHT22;10617;52.032;5.298;2022-12-18T18:30:35;0.60;99.90
20915;DHT22;10617;52.032;5.298;2022-12-18T18:34:37;0.60;99.90
20915;DHT22;10617;52.032;5.298;2022-12-18T18:38:38;0.60;99.90
20915;DHT22;10617;52.032;5.298;2022-12-18T18:42:44;0.60;99.90
20915;DHT22;10617;52.032;5.298;2022-12-18T18:46:46;0.70;99.90
20915;DHT22;10617;52.032;5.298;2022-12-18T18:50:55;0.70;99.90
20915;DHT22;10617;52.032;5.298;2022-12-18T18:54:56;0.70;99.90
20915;DHT22;10617;52.032;5.298;2022-12-18T18:59:13;0.70;99.90
20915;DHT22;10617;52.032;5.298;2022-12-18T19:03:15;0.80;99.90
20915;DHT22;10617;52.032;5.298;2022-12-18T19:07:17;0.80;99.90
20915;DHT22;10617;52.032;5.298;2022-12-18T19:11:29;0.80;99.90
20915;DHT22;10617;52.032;5.298;2022-12-18T19:15:50;0.80;99.90
20915;DHT22;10617;52.032;5.298;2022-12-18T19:19:52;0.80;99.90
20915;DHT22;10617;52.032;5.298;2022-12-18T19:23:54;0.90;99.90
20915;DHT22;10617;52.032;5.298;2022-12-18T19:27:56;0.90;99.90
20915;DHT22;10617;52.032;5.298;2022-12-18T19:31:57;0.90;99.90
20915;DHT22;10617;52.032;5.298;2022-12-18T19:35:59;0.90;99.90
20915;DHT22;10617;52.032;5.298;2022-12-18T19:40:01;1.00;99.90
20915;DHT22;10617;52.032;5.298;2022-12-18T19:44:16;1.00;99.90
20915;DHT22;10617;52.032;5.298;2022-12-18T19:48:18;1.00;99.90
20915;DHT22;10617;52.032;5.298;2022-12-18T19:52:19;0.90;99.90
20915;DHT22;10617;52.032;5.298;2022-12-18T19:56:21;0.80;99.90
20915;DHT22;10617;52.032;5.298;2022-12-18T20:00:23;0.80;99.90
20915;DHT22;10617;52.032;5.298;2022-12-18T20:04:25;0.70;99.90
20915;DHT22;10617;52.032;5.298;2022-12-18T20:08:26;0.70;99.90
20915;DHT22;10617;52.032;5.298;2022-12-18T20:12:28;0.70;99.90
20915;DHT22;10617;52.032;5.298;2022-12-18T20:16:30;0.70;99.90
20915;DHT22;10617;52.032;5.298;2022-12-18T20:20:33;0.70;99.90
20915;DHT22;10617;52.032;5.298;2022-12-18T20:24:35;0.70;99.90
20915;DHT22;10617;52.032;5.298;2022-12-18T20:28:36;0.70;99.90
20915;DHT22;10617;52.032;5.298;2022-12-18T20:32:40;0.70;99.90
20915;DHT22;10617;52.032;5.298;2022-12-18T20:36:42;0.70;99.90
20915;DHT22;10617;52.032;5.298;2022-12-18T20:40:44;0.70;99.90
20915;DHT22;10617;52.032;5.298;2022-12-18T20:44:45;0.70;99.90
20915;DHT22;10617;52.032;5.298;2022-12-18T20:48:47;0.60;99.90
20915;DHT22;10617;52.032;5.298;2022-12-18T20:52:49;0.60;99.90
20915;DHT22;10617;52.032;5.298;2022-12-18T20:56:50;0.60;99.90
20915;DHT22;10617;52.032;5.298;2022-12-18T21:01:02;0.60;99.90
20915;DHT22;10617;52.032;5.298;2022-12-18T21:05:04;0.60;99.90
20915;DHT22;10617;52.032;5.298;2022-12-18T21:09:06;0.60;99.90
20915;DHT22;10617;52.032;5.298;2022-12-18T21:13:07;0.60;99.90
20915;DHT22;10617;52.032;5.298;2022-12-18T21:17:10;0.60;99.90
20915;DHT22;10617;52.032;5.298;2022-12-18T21:21:12;0.70;99.90
20915;DHT22;10617;52.032;5.298;2022-12-18T21:40:23;0.70;99.90
20915;DHT22;10617;52.032;5.298;2022-12-18T21:44:25;0.70;99.90
20915;DHT22;10617;52.032;5.298;2022-12-18T21:48:26;0.70;99.90
20915;DHT22;10617;52.032;5.298;2022-12-18T21:52:28;0.80;99.90
20915;DHT22;10617;52.032;5.298;2022-12-18T21:56:49;0.80;99.90
20915;DHT22;10617;52.032;5.298;2022-12-18T22:00:53;0.80;99.90
20915;DHT22;10617;52.032;5.298;2022-12-18T22:04:55;0.80;99.90
20915;DHT22;10617;52.032;5.298;2022-12-18T22:08:57;0.80;99.90
20915;DHT22;10617;52.032;5.298;2022-12-18T22:12:58;0.80;99.90
20915;DHT22;10617;52.032;5.298;2022-12-18T22:17:00;0.80;99.90
20915;DHT22;10617;52.032;5.298;2022-12-18T22:21:02;0.90;99.90
20915;DHT22;10617;52.032;5.298;2022-12-18T22:25:04;0.90;99.90
20915;DHT22;10617;52.032;5.298;2022-12-18T22:29:06;0.90;99.90
20915;DHT22;10617;52.032;5.298;2022-12-18T22:33:28;0.90;99.90
20915;DHT22;10617;52.032;5.298;2022-12-18T22:37:30;1.00;99.90
20915;DHT22;10617;52.032;5.298;2022-12-18T22:41:31;1.00;99.90
20915;DHT22;10617;52.032;5.298;2022-12-18T22:45:33;1.00;99.90
20915;DHT22;10617;52.032;5.298;2022-12-18T22:49:37;1.10;99.90
20915;DHT22;10617;52.032;5.298;2022-12-18T22:53:39;1.10;99.90
20915;DHT22;10617;52.032;5.298;2022-12-18T22:57:41;1.10;99.90
20915;DHT22;10617;52.032;5.298;2022-12-18T23:01:44;1.10;99.90
20915;DHT22;10617;52.032;5.298;2022-12-18T23:05:46;1.20;99.90
20915;DHT22;10617;52.032;5.298;2022-12-18T23:09:48;1.20;99.90
20915;DHT22;10617;52.032;5.298;2022-12-18T23:13:51;1.20;99.90
20915;DHT22;10617;52.032;5.298;2022-12-18T23:17:52;1.20;99.90
20915;DHT22;10617;52.032;5.298;2022-12-18T23:21:54;1.20;99.90
20915;DHT22;10617;52.032;5.298;2022-12-18T23:25:59;1.30;99.90
20915;DHT22;10617;52.032;5.298;2022-12-18T23:30:00;1.30;99.90
20915;DHT22;10617;52.032;5.298;2022-12-18T23:34:02;1.30;99.90
20915;DHT22;10617;52.032;5.298;2022-12-18T23:38:04;1.30;99.90
20915;DHT22;10617;52.032;5.298;2022-12-18T23:42:06;1.30;99.90
20915;DHT22;10617;52.032;5.298;2022-12-18T23:46:21;1.30;99.90
20915;DHT22;10617;52.032;5.298;2022-12-18T23:50:23;1.30;99.90
20915;DHT22;10617;52.032;5.298;2022-12-18T23:54:30;1.40;99.90
20915;DHT22;10617;52.032;5.298;2022-12-18T23:58:34;1.40;99.90
